Tiempo atmosférico en la estación meteorológica de Monterrubio De La Demanda, Burgos (1190 m.)



Fecha
DESCASC
Temp. máxima en grados centígrados (hora)
DESCASC
Temp. mínima en grados centígrados (hora)
DESCASC
Temp. media en grados centígrados
DESCASC
Racha de viento máxima en m/sg (hora)
DESCASC
Velocidad máxima media en intervalos de 10 minutos(hora)
DESCASC
Precipitaciones diarias en mm
DESCASC
Precipitaciones de 00:00 a 06:00 en mm
DESCASC
Precipitaciones de 06:00 a 12:00 en mm
DESCASC
Precipitaciones de 12:00 a 18:00 en mm
DESCASC
Precipitaciones de 18:00 a 24:00 en mm
DESCASC
24-05-2020 21.3 (15:00) 6.5 (04:30) 13.9 10.83 (18:30) 8.61 (19:20) 0 0 0 0 0
23-05-2020 17.3 (16:00) 8.2 (23:59) 12.7 13.89 (18:50) 11.11 (17:10) 0 0 0 0 0
22-05-2020 26.4 (18:00) 7.8 (06:20) 17.1 9.44 (15:10) 6.67 (14:30) 0 0 0 0 0
21-05-2020 25 (15:50) 6.4 (00:00) 15.7 8.89 (18:00) 5.83 (17:30) 0 0 0 0 0
20-05-2020 23.3 (15:20) 7.8 (00:00) 15.5 10.83 (17:30) 6.94 (18:20) 0 0 0 0 0
19-05-2020 21.5 (15:50) 5.5 (00:00) 13.5 11.39 (19:00) 7.78 (18:50) 0 0 0 0 0
18-05-2020 18.7 (13:40) 3.8 (00:00) 11.3 11.67 (17:50) 7.5 (17:30) 0 0 0 0 0
17-05-2020 16.2 (16:40) 2.5 (00:00) 9.4 9.17 (15:50) 6.39 (19:10) 0 0 0 0 0
16-05-2020 9.2 (18:10) 4.4 (00:00) 6.8 10.56 (20:40) 6.11 (20:50) 0 0 0 0 0
15-05-2020 8 (14:20) 5.5 (00:00) 6.8 11.39 (14:30) 6.94 (14:30) 0.2 0 0 0.2 0
14-05-2020 12.2 (13:40) 6.9 (00:00) 9.5 9.17 (21:10) 5.83 (20:30) 6.6 0.2 0 6.4 0
13-05-2020 14 (18:50) 6.1 (00:00) 10 7.78 (14:20) 5.28 (13:00) 8.2 3.4 0.8 0 4
12-05-2020 14.4 (14:50) 6.6 (00:00) 10.5 7.22 (14:40) 4.72 (15:00) 6.6 0 0 0 6.6
11-05-2020 15 (16:40) 7.1 (00:00) 11 11.11 (14:40) 7.5 (16:30) 3.6 2.2 1.4 0 0
10-05-2020 12.3 (15:00) 7.1 (00:00) 9.7 12.22 (14:30) 7.78 (16:00) 5.6 2.6 2.4 0.4 0.2
09-05-2020 19.1 (16:20) 8.1 (00:00) 13.6 10.28 (17:40) 6.39 (19:20) 1.6 1.4 0 0 0.2
08-05-2020 21.4 (17:00) 11.1 (00:00) 16.3 13.89 (06:40) 6.39 (06:40) 3.2 0 2.6 0 0.6
07-05-2020 22.7 (16:40) 7.9 (00:00) 15.3 10.28 (22:40) 5.83 (17:10) 0 0 0 0 0
06-05-2020 21.4 (18:10) 3.6 (00:00) 12.5 10.28 (16:40) 5 (21:50) 0 0 0 0 0
05-05-2020 18.7 (18:20) 9.1 (00:00) 13.9 10.83 (16:10) 6.11 (13:20) 0 0 0 0 0
04-05-2020 25 (18:20) 8 (00:00) 16.5 20.56 (21:10) 12.78 (21:10) 0 0 0 0 0
03-05-2020 23.3 (17:50) 4.3 (00:00) 13.8 8.89 (16:00) 6.11 (14:20) 0 0 0 0 0
02-05-2020 17.9 (17:50) 9.1 (00:00) 13.5 11.94 (01:00) 8.89 (00:50) 0 0 0 0 0
01-05-2020 15.3 (17:10) 8.3 (00:00) 11.8 14.17 (16:30) 9.72 (16:30) 8.4 2 6.4 0 0
30-04-2020 10.7 (18:10) 5.7 (00:00) 8.2 16.94 (09:20) 11.11 (09:20) 0.8 0 0 0.8 0
29-04-2020 12.1 (15:40) 3.8 (00:00) 8 16.94 (19:30) 11.67 (19:30) 0.6 0 0 0.6 0
28-04-2020 9.5 (18:10) 4.6 (00:00) 7 11.67 (13:50) 7.78 (16:10) 2 0.2 0.2 1.6 0
27-04-2020 11.1 (18:00) 5.6 (00:00) 8.4 11.94 (15:50) 7.22 (15:50) 8.2 2.2 0.6 1.4 4
26-04-2020 14.3 (14:50) 7.5 (00:00) 10.9 9.17 (19:40) 5.28 (02:30) 17.2 0 0 3.2 14

Gráficas

Temp. máximas Temp. mínimas Temp. medias Precipitaciones Rachas de viento máximas Velocidades máximas media en intervalos de 10 minutos

Datos horarios

Fecha y hora oficial Temperatura (ºC) Velocidad del viento (km/h) Dirección del viento Racha (km/h) Dirección de racha Precipitación (mm) Presión (hPa) Tendencia (hPa) Humedad (%)
2020-05-25 23:00:00 12.4 18 Este 30 Sudeste 0 -- -- 91
2020-05-25 22:00:00 13 17 Sudeste 32 Nordeste 0 -- -- 89
2020-05-25 21:00:00 13.4 26 Nordeste 39 Nordeste 0 -- -- 84
2020-05-25 20:00:00 15 26 Nordeste 45 Nordeste 0 -- -- 77
2020-05-25 19:00:00 16.4 18 Este 37 Sudeste 0 -- -- 76
2020-05-25 18:00:00 17.9 28 Sudeste 37 Sudeste 0 -- -- 74
2020-05-25 17:00:00 17.5 28 Sudeste 39 Sudeste 0 -- -- 75
2020-05-25 16:00:00 19.3 20 Sudeste 31 Sudeste 0 -- -- 74
2020-05-25 15:00:00 19.2 26 Sudeste 36 Sudeste 0 -- -- 68
2020-05-25 14:00:00 20.7 22 Sudeste 32 Sudeste 0 -- -- 67
2020-05-25 13:00:00 19.5 23 Sudeste 32 Sudeste 0 -- -- 71
2020-05-25 12:00:00 16.9 24 Sudeste 34 Sudeste 0 -- -- 82
2020-05-25 11:00:00 12.8 25 Sudeste 33 Sudeste 0 -- -- 100
2020-05-25 10:00:00 10.9 22 Sudeste 30 Sudeste 0 -- -- 100
2020-05-25 09:00:00 10 20 Sudeste 28 Sudeste 0 -- -- 100
2020-05-25 08:00:00 9.4 19 Sudeste 27 Sudeste 0 -- -- 100
2020-05-25 07:00:00 9.1 13 Sudeste 21 Sudeste 0 -- -- 100
2020-05-25 06:00:00 9.1 11 Sudeste 20 Sudeste 0 -- -- 100
2020-05-25 05:00:00 9.3 12 Sudeste 17 Sudeste 0 -- -- 99
2020-05-25 04:00:00 9.6 9 Sudeste 16 Sudeste 0 -- -- 97
2020-05-25 03:00:00 10.9 7 Sudeste 25 Sudeste 0 -- -- 93
2020-05-25 02:00:00 11.6 6 Sudeste 23 Sudeste 0 -- -- 90
2020-05-25 01:00:00 12.7 18 Sudeste 28 Sudeste 0 -- -- 85
2020-05-25 00:00:00 13.1 10 Sudeste 28 Sudeste 0 -- -- 82
2020-05-24 23:00:00 14.3 22 Sudeste 31 Sudeste 0 -- -- 77
2020-05-24 22:00:00 14.7 21 Sudeste 30 Sudeste 0 -- -- 74
2020-05-24 21:00:00 15.8 21 Sudeste 34 Sudeste 0 -- -- 72
2020-05-24 20:00:00 17.7 27 Sudeste 39 Sudeste 0 -- -- 68
2020-05-24 19:00:00 18.8 29 Sudeste 39 Sudeste 0 -- -- 66
2020-05-24 18:00:00 19.4 30 Sudeste 37 Sudeste 0 -- -- 66
2020-05-24 17:00:00 20.4 26 Sudeste 34 Sudeste 0 -- -- 65
2020-05-24 16:00:00 20.9 24 Sudeste 31 Sudeste 0 -- -- 62
2020-05-24 15:00:00 21.3 20 Sudeste 28 Sudeste 0 -- -- 61
2020-05-24 14:00:00 20.7 15 Sudeste 24 Sudeste 0 -- -- 61
2020-05-24 13:00:00 18.1 20 Sudeste 29 Sudeste 0 -- -- 64
2020-05-24 12:00:00 16.3 22 Sudeste 32 Sudeste 0 -- -- 68
2020-05-24 11:00:00 13.5 26 Sudeste 33 Sudeste 0 -- -- 77
2020-05-24 10:00:00 11.4 24 Sudeste 35 Sudeste 0 -- -- 77
2020-05-24 09:00:00 8.1 26 Sudeste 36 Sudeste 0 -- -- 94
2020-05-24 08:00:00 7.4 7 Sudeste 19 Sudeste 0 -- -- 95
2020-05-24 07:00:00 6.8 9 Sudeste 26 Sudeste 0 -- -- 96
2020-05-24 06:00:00 6.8 21 Sudeste 35 Sudeste 0 -- -- 98
2020-05-24 05:00:00 6.7 29 Sudeste 35 Sudeste 0 -- -- 99
2020-05-24 04:00:00 6.6 26 Sudeste 35 Sudeste 0 -- -- 99
2020-05-24 03:00:00 7 22 Sudeste 33 Sudeste 0 -- -- 98
2020-05-24 02:00:00 7.5 22 Sudeste 31 Sudeste 0 -- -- 97
2020-05-24 01:00:00 7.9 21 Sudeste 36 Sudeste 0 -- -- 97
2020-05-24 00:00:00 8.2 24 Sudeste 37 Sudeste 0 -- -- 96
2020-05-23 23:00:00 8.9 26 Sudeste 38 Sudeste 0 -- -- 95
2020-05-23 22:00:00 9.3 24 Sudeste 41 Sudeste 0 -- -- 94
2020-05-23 21:00:00 10.2 28 Sudeste 43 Sudeste 0 -- -- 89
2020-05-23 20:00:00 11.4 33 Sudeste 48 Sudeste 0 -- -- 86
2020-05-23 19:00:00 13.1 36 Sudeste 50 Sudeste 0 -- -- 84
2020-05-23 18:00:00 14.8 38 Sudeste 50 Sudeste 0 -- -- 80
2020-05-23 17:00:00 16.1 40 Sudeste 47 Sudeste 0 -- -- 77
2020-05-23 16:00:00 17.3 30 Sudeste 36 Sudeste 0 -- -- 76
2020-05-23 15:00:00 16.4 31 Sudeste 42 Sudeste 0 -- -- 78
2020-05-23 14:00:00 15.9 31 Sudeste 41 Sudeste 0 -- -- 81
2020-05-23 13:00:00 16 32 Sudeste 42 Sudeste 0 -- -- 80
2020-05-23 12:00:00 14.9 35 Sudeste 42 Sudeste 0 -- -- 82
2020-05-23 11:00:00 14.4 33 Sudeste 41 Sudeste 0 -- -- 85
2020-05-23 10:00:00 12.4 29 Sudeste 37 Sudeste 0 -- -- 99
2020-05-23 09:00:00 11.8 26 Sudeste 33 Sudeste 0 -- -- 100
2020-05-23 08:00:00 11.8 23 Sudeste 30 Sudeste 0 -- -- 100
2020-05-23 07:00:00 12 19 Sudeste 28 Sudeste 0 -- -- 100
2020-05-23 06:00:00 11.9 17 Este 26 Este 0 -- -- 99
2020-05-23 05:00:00 11.8 13 Este 18 Sudeste 0 -- -- 98
2020-05-23 04:00:00 11.6 5 Sudeste 9 Sudeste 0 -- -- 89
2020-05-23 03:00:00 11.9 4 Sudeste 5 Sudeste 0 -- -- 87
2020-05-23 02:00:00 13.7 0 Calma 4 Norte 0 -- -- 79
2020-05-23 01:00:00 14.5 0 Calma 4 Noroeste 0 -- -- 76
2020-05-23 00:00:00 16.2 3 Oeste 7 Oeste 0 -- -- 69
2020-05-22 23:00:00 17.5 3 Sudeste 5 Este 0 -- -- 63
2020-05-22 22:00:00 19.9 3 Oeste 12 Norte 0 -- -- 56
2020-05-22 21:00:00 23 8 Norte 16 Noroeste 0 -- -- 44
2020-05-22 20:00:00 25.1 11 Noroeste 24 Oeste 0 -- -- 44
2020-05-22 19:00:00 25.8 15 Oeste 27 Noroeste 0 -- -- 41
2020-05-22 18:00:00 26.4 13 Noroeste 28 Oeste 0 -- -- 41
2020-05-22 17:00:00 26 17 Noroeste 31 Oeste 0 -- -- 38
2020-05-22 16:00:00 25.7 17 Oeste 34 Oeste 0 -- -- 37
2020-05-22 15:00:00 25.1 22 Oeste 33 Oeste 0 -- -- 38
2020-05-22 14:00:00 24.7 22 Oeste 32 Oeste 0 -- -- 37
2020-05-22 13:00:00 24.6 17 Oeste 28 Oeste 0 -- -- 44
2020-05-22 12:00:00 23.6 9 Noroeste 16 Noroeste 0 -- -- 47
2020-05-22 11:00:00 21.3 4 Oeste 8 Oeste 0 -- -- 46
2020-05-22 10:00:00 18.5 0 Calma 4 Sur 0 -- -- 67
2020-05-22 09:00:00 13.8 0 Calma 2 Oeste 0 -- -- 75
2020-05-22 08:00:00 11.1 0 Calma 3 Este 0 -- -- 82
2020-05-22 07:00:00 8.5 0 Calma 5 Este 0 -- -- 85
2020-05-22 06:00:00 9.5 3 Noroeste 4 Noroeste 0 -- -- 81
2020-05-22 05:00:00 9.5 0 Calma 3 Sudeste 0 -- -- 80
2020-05-22 04:00:00 9.8 0 Calma 3 Este 0 -- -- 79
2020-05-22 03:00:00 10.7 0 Calma 3 Este 0 -- -- 75
2020-05-22 02:00:00 11.3 0 Calma 3 Sudeste 0 -- -- 71
2020-05-22 01:00:00 12.2 0 Calma 2 Nordeste 0 -- -- 67
2020-05-22 00:00:00 13.2 0 Calma 6 Sudeste 0 -- -- 63
2020-05-21 23:00:00 15.2 2 Este 6 Norte 0 -- -- 55
2020-05-21 22:00:00 17.8 0 Calma 10 Norte 0 -- -- 48
2020-05-21 21:00:00 21.3 6 Norte 20 Noroeste 0 -- -- 37
2020-05-21 20:00:00 23.1 16 Noroeste 26 Oeste 0 -- -- 35
2020-05-21 19:00:00 24.2 17 Oeste 32 Oeste 0 -- -- 31
2020-05-21 18:00:00 24.6 20 Oeste 32 Oeste 0 -- -- 34
2020-05-21 17:00:00 24.7 20 Oeste 28 Oeste 0 -- -- 33
2020-05-21 16:00:00 24.9 15 Oeste 28 Oeste 0 -- -- 28
2020-05-21 15:00:00 24.4 16 Oeste 26 Oeste 0 -- -- 31
2020-05-21 14:00:00 23.7 11 Oeste 22 Oeste 0 -- -- 32
2020-05-21 13:00:00 23 12 Noroeste 20 Oeste 0 -- -- 37
2020-05-21 12:00:00 21.6 5 Noroeste 13 Sudeste 0 -- -- 37
2020-05-21 11:00:00 19.1 10 Sudeste 17 Sudeste 0 -- -- 45
2020-05-21 10:00:00 15 5 Este 14 Sudeste 0 -- -- 57
2020-05-21 09:00:00 12.2 10 Sudeste 16 Este 0 -- -- 58
2020-05-21 08:00:00 9.1 8 Este 19 Este 0 -- -- 67
2020-05-21 07:00:00 6.6 14 Este 18 Sudeste 0 -- -- 77
2020-05-21 06:00:00 7.7 5 Este 15 Sudeste 0 -- -- 75
2020-05-21 05:00:00 8.2 12 Este 23 Este 0 -- -- 75
2020-05-21 04:00:00 9.3 17 Este 21 Este 0 -- -- 72
2020-05-21 03:00:00 11 12 Este 18 Sudeste 0 -- -- 59
2020-05-21 02:00:00 10.3 12 Sudeste 17 Sudeste 0 -- -- 66
2020-05-21 01:00:00 11.7 11 Este 14 Este 0 -- -- 64
2020-05-21 00:00:00 13.1 5 Este 9 Este 0 -- -- 62
2020-05-20 23:00:00 15.2 5 Este 31 Este 0 -- -- 58
2020-05-20 22:00:00 17.5 15 Nordeste 33 Nordeste 0 -- -- 53
2020-05-20 21:00:00 19 21 Nordeste 34 Nordeste 0 -- -- 47
2020-05-20 20:00:00 20.5 19 Nordeste 37 Nordeste 0 -- -- 36
2020-05-20 19:00:00 21.6 23 Nordeste 38 Nordeste 0 -- -- 24
2020-05-20 18:00:00 22.2 24 Nordeste 39 Nordeste 0 -- -- 22
2020-05-20 17:00:00 22.7 19 Este 33 Este 0 -- -- 26
2020-05-20 16:00:00 23 19 Este 30 Este 0 -- -- 25
2020-05-20 15:00:00 23.2 12 Sudeste 27 Este 0 -- -- 35
2020-05-20 14:00:00 22.4 13 Sudeste 22 Sudeste 0 -- -- 32
2020-05-20 13:00:00 21.5 10 Sudeste 24 Sudeste 0 -- -- 33
2020-05-20 12:00:00 19.9 20 Sudeste 26 Sudeste 0 -- -- 38
2020-05-20 11:00:00 18.4 18 Sudeste 23 Sudeste 0 -- -- 38
2020-05-20 10:00:00 16.1 14 Sudeste 19 Sudeste 0 -- -- 49
2020-05-20 09:00:00 11.8 12 Este 17 Este 0 -- -- 68
2020-05-20 08:00:00 9.2 9 Este 14 Este 0 -- -- 76
2020-05-20 07:00:00 8 8 Este 18 Este 0 -- -- 77
2020-05-20 06:00:00 8.9 13 Este 18 Este 0 -- -- 74
2020-05-20 05:00:00 8.7 11 Este 18 Sudeste 0 -- -- 77
2020-05-20 04:00:00 8.8 13 Este 19 Este 0 -- -- 84
2020-05-20 03:00:00 9 9 Este 21 Este 0 -- -- 84
2020-05-20 02:00:00 9.3 9 Este 19 Sudeste 0 -- -- 84
2020-05-20 01:00:00 9.8 11 Sudeste 19 Sudeste 0 -- -- 84
2020-05-20 00:00:00 10.8 13 Sudeste 19 Sudeste 0 -- -- 80
2020-05-19 23:00:00 11.2 11 Sudeste 16 Este 0 -- -- 76
2020-05-19 22:00:00 13.8 4 Este 27 Nordeste 0 -- -- 58
2020-05-19 21:00:00 16.4 22 Nordeste 35 Nordeste 0 -- -- 56
2020-05-19 20:00:00 18.7 14 Nordeste 37 Nordeste 0 -- -- 30
2020-05-19 19:00:00 18.7 27 Nordeste 41 Nordeste 0 -- -- 28
2020-05-19 18:00:00 20.7 22 Nordeste 38 Este 0 -- -- 28
2020-05-19 17:00:00 21.2 23 Nordeste 35 Nordeste 0 -- -- 21
2020-05-19 16:00:00 21.3 19 Nordeste 30 Nordeste 0 -- -- 35
2020-05-19 15:00:00 20.7 10 Sudeste 22 Sudeste 0 -- -- 43
2020-05-19 14:00:00 19.4 15 Sudeste 25 Sudeste 0 -- -- 46
2020-05-19 13:00:00 18.2 20 Sudeste 35 Este 0 -- -- 47
2020-05-19 12:00:00 17.4 20 Sudeste 31 Este 0 -- -- 47
2020-05-19 11:00:00 15 23 Sudeste 34 Este 0 -- -- 59
2020-05-19 10:00:00 13.7 23 Sudeste 32 Sudeste 0 -- -- 60
2020-05-19 09:00:00 10.9 13 Sudeste 22 Sudeste 0 -- -- 77
2020-05-19 08:00:00 7.6 14 Sudeste 21 Sudeste 0 -- -- 87
2020-05-19 07:00:00 6.2 13 Este 18 Sudeste 0 -- -- 88
2020-05-19 06:00:00 5.5 15 Sudeste 20 Sudeste 0 -- -- 91
2020-05-19 05:00:00 6 15 Sudeste 19 Este 0 -- -- 90
2020-05-19 04:00:00 6.6 12 Sudeste 20 Sudeste 0 -- -- 90
2020-05-19 03:00:00 7.5 14 Sudeste 30 Este 0 -- -- 83
2020-05-19 02:00:00 9.2 19 Este 32 Este 0 -- -- 74
2020-05-19 01:00:00 9.9 21 Este 31 Este 0 -- -- 73
2020-05-19 00:00:00 10.6 21 Este 28 Este 0 -- -- 72
2020-05-18 23:00:00 11.4 12 Este 24 Nordeste 0 -- -- 68
2020-05-18 22:00:00 13.3 16 Nordeste 28 Nordeste 0 -- -- 56
2020-05-18 21:00:00 14.7 10 Nordeste 25 Nordeste 0 -- -- 56
2020-05-18 20:00:00 16.2 10 Nordeste 35 Nordeste 0 -- -- 57
2020-05-18 19:00:00 17.2 14 Este 37 Nordeste 0 -- -- 49
2020-05-18 18:00:00 17.5 23 Nordeste 42 Nordeste 0 -- -- 45
2020-05-18 17:00:00 17.9 24 Nordeste 41 Nordeste 0 -- -- 39
2020-05-18 16:00:00 18.3 21 Este 41 Nordeste 0 -- -- 36
2020-05-18 15:00:00 18.7 18 Nordeste 35 Nordeste 0 -- -- 40
2020-05-18 14:00:00 18.6 19 Nordeste 32 Nordeste 0 -- -- 42
2020-05-18 13:00:00 17.8 8 Sudeste 21 Sudeste 0 -- -- 47
2020-05-18 12:00:00 16.1 17 Sudeste 27 Sudeste 0 -- -- 48
2020-05-18 11:00:00 14.4 19 Sudeste 27 Sudeste 0 -- -- 45
2020-05-18 10:00:00 12.5 20 Sudeste 27 Sudeste 0 -- -- 49
2020-05-18 09:00:00 8.5 10 Este 25 Este 0 -- -- 70
2020-05-18 08:00:00 5.9 19 Este 26 Sudeste 0 -- -- 73
2020-05-18 07:00:00 4 19 Este 27 Este 0 -- -- 84
2020-05-18 06:00:00 4.3 18 Este 25 Este 0 -- -- 85
2020-05-18 05:00:00 3.9 15 Este 26 Sudeste 0 -- -- 89
2020-05-18 04:00:00 4.7 17 Sudeste 24 Sudeste 0 -- -- 92
2020-05-18 03:00:00 5.5 15 Sudeste 24 Sudeste 0 -- -- 92
2020-05-18 02:00:00 6.6 19 Sudeste 27 Sudeste 0 -- -- 89
2020-05-18 01:00:00 7.7 18 Este 24 Sudeste 0 -- -- 86
2020-05-18 00:00:00 7.2 3 Sudeste 8 Este 0 -- -- 85
2020-05-17 23:00:00 8 4 Sudeste 17 Este 0 -- -- 81
2020-05-17 22:00:00 9.9 9 Este 18 Este 0 -- -- 73
2020-05-17 21:00:00 12.2 12 Este 31 Nordeste 0 -- -- 60
2020-05-17 20:00:00 13.9 22 Nordeste 32 Nordeste 0 -- -- 50
2020-05-17 19:00:00 15.3 18 Nordeste 32 Nordeste 0 -- -- 52
2020-05-17 18:00:00 16.1 18 Sudeste 27 Sudeste 0 -- -- 47
2020-05-17 17:00:00 16.1 13 Sudeste 27 Sudeste 0 -- -- 46
2020-05-17 16:00:00 15.3 17 Sudeste 33 Este 0 -- -- 48
2020-05-17 15:00:00 14.5 19 Sudeste 31 Este 0 -- -- 49
2020-05-17 14:00:00 13.7 17 Sudeste 27 Sudeste 0 -- -- 57
2020-05-17 13:00:00 12.5 13 Sudeste 28 Sudeste 0 -- -- 57
2020-05-17 12:00:00 11.4 17 Sudeste 30 Sudeste 0 -- -- 69
2020-05-17 11:00:00 9.6 17 Sudeste 29 Sudeste 0 -- -- 75
2020-05-17 10:00:00 7.9 19 Sudeste 26 Sudeste 0 -- -- 82
2020-05-17 09:00:00 5.8 17 Sudeste 22 Sudeste 0 -- -- 87
2020-05-17 08:00:00 4 11 Este 16 Este 0 -- -- 93
2020-05-17 07:00:00 3.2 8 Este 12 Este 0 -- -- 96
2020-05-17 06:00:00 3.1 3 Este 9 Este 0 -- -- 94
2020-05-17 05:00:00 4.2 7 Este 12 Este 0 -- -- 94
2020-05-17 04:00:00 4.6 9 Este 14 Este 0 -- -- 94
2020-05-17 03:00:00 4.6 3 Nordeste 26 Nordeste 0 -- -- 89
2020-05-17 02:00:00 6 9 Nordeste 28 Este 0 -- -- 84
2020-05-17 01:00:00 6.5 5 Este 26 Nordeste 0 -- -- 81
2020-05-17 00:00:00 6.7 13 Este 33 Este 0 -- -- 84
2020-05-16 23:00:00 7.3 15 Nordeste 30 Nordeste 0 -- -- 80
2020-05-16 22:00:00 7.7 15 Este 30 Este 0 -- -- 77
2020-05-16 21:00:00 7.9 19 Este 38 Este 0 -- -- 76
2020-05-16 20:00:00 8.3 15 Este 31 Este 0 -- -- 77
2020-05-16 19:00:00 8.5 10 Este 28 Este 0 -- -- 80
2020-05-16 18:00:00 8.9 11 Este 21 Nordeste 0 -- -- 83
2020-05-16 17:00:00 7.4 18 Nordeste 32 Nordeste 0 -- -- 91
2020-05-16 16:00:00 7.4 13 Este 27 Este 0 -- -- 91
2020-05-16 15:00:00 7.3 15 Nordeste 31 Este 0 -- -- 91
2020-05-16 14:00:00 7.4 7 Este 29 Nordeste 0 -- -- 91
2020-05-16 13:00:00 7 8 Este 26 Este 0 -- -- 91
2020-05-16 12:00:00 6.6 3 Nordeste 19 Este 0 -- -- 94
2020-05-16 11:00:00 6.2 6 Este 21 Sudeste 0 -- -- 95
2020-05-16 10:00:00 5.8 9 Este 17 Este 0 -- -- 96
2020-05-16 09:00:00 5.2 10 Este 15 Este 0 -- -- 97
2020-05-16 08:00:00 4.9 9 Este 16 Este 0 -- -- 97
2020-05-16 07:00:00 4.6 10 Este 21 Este 0 -- -- 97
2020-05-16 06:00:00 4.5 10 Este 22 Este 0 -- -- 96
2020-05-16 05:00:00 4.4 12 Este 21 Sudeste 0 -- -- 94
2020-05-16 04:00:00 4.5 13 Este 22 Este 0 -- -- 95
2020-05-16 03:00:00 4.4 14 Este 22 Este 0 -- -- 94
2020-05-16 02:00:00 4.5 14 Este 23 Sudeste 0 -- -- 92
2020-05-16 01:00:00 5 10 Este 22 Este 0 -- -- 92
2020-05-16 00:00:00 5.5 14 Este 28 Este 0 -- -- 91
2020-05-15 23:00:00 5.6 16 Nordeste 32 Este 0 -- -- 89
2020-05-15 22:00:00 6.1 12 Nordeste 26 Este 0 -- -- 89
2020-05-15 21:00:00 6.5 12 Este 33 Este 0 -- -- 89
2020-05-15 20:00:00 6.9 9 Sudeste 37 Este 0 -- -- 88
2020-05-15 19:00:00 7.7 18 Este 36 Sudeste 0 -- -- 86
2020-05-15 18:00:00 7.5 10 Nordeste 28 Nordeste 0 -- -- 90
2020-05-15 17:00:00 7.3 19 Nordeste 39 Este 0 -- -- 93
2020-05-15 16:00:00 7.6 17 Nordeste 34 Nordeste 0 -- -- 92
2020-05-15 15:00:00 7.6 18 Este 41 Este 0 -- -- 91
2020-05-15 14:00:00 7.6 13 Sudeste 19 Sudeste 0 -- -- 97
2020-05-15 13:00:00 7.3 11 Este 18 Este 0.2 -- -- 97
2020-05-15 12:00:00 7.4 9 Sudeste 15 Este 0 -- -- 95
2020-05-15 11:00:00 7.5 9 Sudeste 15 Sudeste 0 -- -- 96
2020-05-15 10:00:00 6.7 10 Este 19 Este 0 -- -- 98
2020-05-15 09:00:00 6.5 13 Este 19 Sudeste 0 -- -- 97
2020-05-15 08:00:00 6.3 12 Este 19 Este 0 -- -- 96
2020-05-15 07:00:00 6.2 6 Sudeste 13 Sudeste 0 -- -- 95
2020-05-15 06:00:00 6.1 6 Este 15 Este 0 -- -- 95
2020-05-15 05:00:00 5.7 8 Este 13 Este 0 -- -- 94
2020-05-15 04:00:00 6.5 6 Este 11 Sudeste 0 -- -- 95
2020-05-15 03:00:00 6.7 4 Este 22 Este 0 -- -- 94
2020-05-15 02:00:00 6.7 8 Nordeste 23 Este 0 -- -- 93
2020-05-15 01:00:00 6.8 12 Este 23 Este 0 -- -- 92
2020-05-15 00:00:00 7 10 Este 17 Este 0 -- -- 95
2020-05-14 23:00:00 7.8 4 Este 18 Nordeste 0 -- -- 92
2020-05-14 22:00:00 8.1 5 Este 33 Nordeste 0 -- -- 91
2020-05-14 21:00:00 8.1 17 Este 30 Nordeste 0 -- -- 87
2020-05-14 20:00:00 8.7 14 Nordeste 28 Nordeste 0 -- -- 87
2020-05-14 19:00:00 9.3 13 Nordeste 19 Nordeste 0 -- -- 89
2020-05-14 18:00:00 10.3 5 Sudoeste 12 Oeste 0 -- -- 83
2020-05-14 17:00:00 9.4 6 Oeste 15 Noroeste 0.6 -- -- 90
2020-05-14 16:00:00 8 8 Noroeste 28 Noroeste 5.8 -- -- 93
2020-05-14 15:00:00 10.1 20 Nordeste 27 Este 0 -- -- 82
2020-05-14 14:00:00 12 16 Este 27 Este 0 -- -- 80
2020-05-14 13:00:00 11.5 17 Sudeste 25 Sudeste 0 -- -- 85
2020-05-14 12:00:00 10.8 13 Sudeste 19 Sudeste 0 -- -- 89
2020-05-14 11:00:00 10 12 Sudeste 21 Sudeste 0 -- -- 95
2020-05-14 10:00:00 8.9 13 Sudeste 21 Sudeste 0 -- -- 100
2020-05-14 09:00:00 7.9 14 Sudeste 25 Sudeste 0 -- -- 100
2020-05-14 08:00:00 7.5 11 Este 23 Este 0 -- -- 100
2020-05-14 07:00:00 7.4 13 Este 22 Sudeste 0 -- -- 100
2020-05-14 06:00:00 7.4 17 Sudeste 28 Este 0 -- -- 100
2020-05-14 05:00:00 7.2 13 Sudeste 21 Sudeste 0 -- -- 100
2020-05-14 04:00:00 7.5 10 Este 22 Sudeste 0 -- -- 99
2020-05-14 03:00:00 7.9 10 Sudeste 22 Sudeste 0 -- -- 99
2020-05-14 02:00:00 7.8 15 Sudeste 21 Sudeste 0 -- -- 99
2020-05-14 01:00:00 8.2 14 Este 21 Este 0.2 -- -- 97
2020-05-14 00:00:00 8.7 14 Sudeste 20 Sudeste 1 -- -- 97
2020-05-13 23:00:00 8.9 17 Sudeste 22 Este 3 -- -- 95
2020-05-13 22:00:00 9.9 9 Sudeste 15 Sudeste 0 -- -- 90
2020-05-13 21:00:00 11.1 7 Nordeste 16 Oeste 0 -- -- 79
2020-05-13 20:00:00 12.8 0 Calma 8 Oeste 0 -- -- 73
2020-05-13 19:00:00 13.7 5 Sudeste 10 Oeste 0 -- -- 67
2020-05-13 18:00:00 12.9 5 Noroeste 12 Noroeste 0 -- -- 71
2020-05-13 17:00:00 12.7 5 Noroeste 13 Oeste 0 -- -- 72
2020-05-13 16:00:00 11.5 2 Noroeste 13 Oeste 0 -- -- 80
2020-05-13 15:00:00 10.1 12 Oeste 28 Oeste 0 -- -- 85
2020-05-13 14:00:00 10.7 11 Oeste 24 Oeste 0 -- -- 84
2020-05-13 13:00:00 9.7 19 Oeste 25 Oeste 0 -- -- 90
2020-05-13 12:00:00 8 13 Oeste 24 Oeste 0 -- -- 97
2020-05-13 11:00:00 7.6 13 Oeste 21 Oeste 0 -- -- 99
2020-05-13 10:00:00 6.8 7 Oeste 14 Oeste 0.2 -- -- 100
2020-05-13 09:00:00 6.4 8 Oeste 18 Oeste 0.4 -- -- 100
2020-05-13 08:00:00 6.1 8 Oeste 13 Oeste 0.2 -- -- 99
2020-05-13 07:00:00 6.2 5 Noroeste 7 Noroeste 0 -- -- 99
2020-05-13 06:00:00 6.2 6 Oeste 12 Noroeste 0.2 -- -- 98
2020-05-13 05:00:00 6.3 3 Noroeste 5 Noroeste 0 -- -- 98
2020-05-13 04:00:00 6.6 0 Calma 4 Norte 0 -- -- 96
2020-05-13 03:00:00 6.5 4 Noroeste 10 Noroeste 0.6 -- -- 96
2020-05-13 02:00:00 6.7 8 Noroeste 16 Noroeste 1 -- -- 96
2020-05-13 01:00:00 7.6 3 Norte 7 Noroeste 1.6 -- -- 96
2020-05-13 00:00:00 7.8 4 Noroeste 9 Noroeste 1.6 -- -- 97
2020-05-12 23:00:00 7.9 5 Oeste 9 Oeste 1.8 -- -- 97
2020-05-12 22:00:00 8.2 3 Oeste 5 Oeste 1.2 -- -- 96
2020-05-12 21:00:00 8.4 3 Oeste 11 Noroeste 1.2 -- -- 95
2020-05-12 20:00:00 9.2 0 Calma 19 Este 0.4 -- -- 90
2020-05-12 19:00:00 10.1 10 Nordeste 24 Este 0.4 -- -- 79
2020-05-12 18:00:00 12.6 16 Sudeste 23 Sudeste 0 -- -- 80
2020-05-12 17:00:00 13.9 4 Noroeste 18 Noroeste 0 -- -- 68
2020-05-12 16:00:00 13.7 12 Noroeste 24 Noroeste 0 -- -- 67
2020-05-12 15:00:00 14 17 Oeste 26 Oeste 0 -- -- 70
2020-05-12 14:00:00 13.9 9 Oeste 18 Oeste 0 -- -- 71
2020-05-12 13:00:00 13.9 5 Norte 12 Norte 0 -- -- 69
2020-05-12 12:00:00 12.2 3 Norte 16 Oeste 0 -- -- 80
2020-05-12 11:00:00 10.9 5 Sudoeste 9 Oeste 0 -- -- 88
2020-05-12 10:00:00 9.3 3 Sur 6 Sur 0 -- -- 98
2020-05-12 09:00:00 8.2 0 Calma 5 Oeste 0 -- -- 98
2020-05-12 08:00:00 7.7 3 Sudoeste 23 Este 0 -- -- 99
2020-05-12 07:00:00 7.4 12 Sudeste 18 Sudeste 0 -- -- 99
2020-05-12 06:00:00 7.2 8 Este 14 Sudeste 0 -- -- 99
2020-05-12 05:00:00 6.8 2 Este 8 Este 0 -- -- 98
2020-05-12 04:00:00 7 0 Calma 4 Nordeste 0 -- -- 97
2020-05-12 03:00:00 6.9 0 Calma 10 Sudeste 0 -- -- 95
2020-05-12 02:00:00 7.4 4 Sudeste 9 Este 0 -- -- 95
2020-05-12 01:00:00 8 7 Este 13 Este 0 -- -- 93
2020-05-12 00:00:00 9.1 2 Norte 8 Norte 0 -- -- 91
2020-05-11 23:00:00 9.6 3 Norte 18 Oeste 0 -- -- 85
2020-05-11 22:00:00 10.6 4 Norte 10 Noroeste 0 -- -- 84
2020-05-11 21:00:00 10.9 2 Noroeste 22 Norte 0 -- -- 80
2020-05-11 20:00:00 12.8 15 Noroeste 32 Noroeste 0 -- -- 70
2020-05-11 19:00:00 13.8 13 Oeste 26 Oeste 0 -- -- 62
2020-05-11 18:00:00 13.7 18 Oeste 35 Oeste 0 -- -- 65
2020-05-11 17:00:00 14 21 Oeste 37 Oeste 0 -- -- 62
2020-05-11 16:00:00 13.9 23 Oeste 35 Oeste 0 -- -- 64
2020-05-11 15:00:00 13.4 24 Noroeste 40 Oeste 0 -- -- 62
2020-05-11 14:00:00 13.2 26 Oeste 39 Oeste 0 -- -- 62
2020-05-11 13:00:00 10.8 18 Noroeste 34 Oeste 0 -- -- 77
2020-05-11 12:00:00 9.5 21 Noroeste 34 Noroeste 0 -- -- 86
2020-05-11 11:00:00 8.5 19 Noroeste 33 Oeste 0 -- -- 94
2020-05-11 10:00:00 7.4 22 Noroeste 32 Oeste 1.2 -- -- 100
2020-05-11 09:00:00 7.1 20 Oeste 32 Oeste 0.2 -- -- 100
2020-05-11 08:00:00 7.6 15 Oeste 25 Noroeste 0 -- -- 99
2020-05-11 07:00:00 7.8 15 Oeste 23 Noroeste 0 -- -- 99
2020-05-11 06:00:00 8 14 Noroeste 26 Oeste 1.6 -- -- 99
2020-05-11 05:00:00 7.9 12 Oeste 17 Noroeste 0.4 -- -- 99
2020-05-11 04:00:00 7.8 14 Oeste 21 Oeste 0.2 -- -- 99
2020-05-11 03:00:00 7.8 11 Noroeste 15 Oeste 0 -- -- 98
2020-05-11 02:00:00 7.8 9 Noroeste 14 Noroeste 0 -- -- 97
2020-05-11 01:00:00 7.8 8 Oeste 14 Noroeste 0 -- -- 96
2020-05-11 00:00:00 8.1 5 Noroeste 12 Noroeste 0 -- -- 94
2020-05-10 23:00:00 8.6 8 Noroeste 17 Noroeste 0 -- -- 92
2020-05-10 22:00:00 9 9 Noroeste 14 Noroeste 0 -- -- 90
2020-05-10 21:00:00 9.2 6 Noroeste 24 Noroeste 0.2 -- -- 88
2020-05-10 20:00:00 9.6 10 Noroeste 18 Noroeste 0 -- -- 86
2020-05-10 19:00:00 9.4 10 Noroeste 27 Noroeste 0 -- -- 90
2020-05-10 18:00:00 9.4 15 Noroeste 35 Oeste 0.4 -- -- 87
2020-05-10 17:00:00 11.5 22 Oeste 33 Oeste 0 -- -- 71
2020-05-10 16:00:00 11.1 28 Oeste 42 Oeste 0 -- -- 70
2020-05-10 15:00:00 12.3 26 Oeste 44 Oeste 0 -- -- 67
2020-05-10 14:00:00 10.4 19 Oeste 36 Oeste 0 -- -- 86
2020-05-10 13:00:00 8.9 19 Oeste 29 Oeste 0 -- -- 89
2020-05-10 12:00:00 9 9 Oeste 30 Noroeste 0 -- -- 84
2020-05-10 11:00:00 7.7 17 Noroeste 31 Oeste 0 -- -- 93
2020-05-10 10:00:00 8 20 Oeste 26 Oeste 0 -- -- 92
2020-05-10 09:00:00 7.7 6 Oeste 16 Oeste 0 -- -- 97
2020-05-10 08:00:00 7.1 12 Oeste 23 Oeste 1 -- -- 97
2020-05-10 07:00:00 7.5 3 Nordeste 6 Sudeste 1.4 -- -- 94
2020-05-10 06:00:00 8 5 Noroeste 28 Noroeste 2 -- -- 94
2020-05-10 05:00:00 8.4 20 Noroeste 31 Oeste 0.6 -- -- 94
2020-05-10 04:00:00 9 0 Calma 7 Noroeste 0 -- -- 89
2020-05-10 03:00:00 8.8 0 Calma 6 Oeste 0 -- -- 91
2020-05-10 02:00:00 10 3 Noroeste 8 Noroeste 0 -- -- 90
2020-05-10 01:00:00 11 4 Norte 12 Noroeste 0 -- -- 88
2020-05-10 00:00:00 12.1 4 Oeste 14 Noroeste 0.2 -- -- 87
2020-05-09 23:00:00 13.1 3 Norte 8 Noroeste 0 -- -- 81
2020-05-09 22:00:00 13.4 5 Norte 10 Oeste 0 -- -- 81
2020-05-09 21:00:00 14.8 6 Noroeste 25 Noroeste 0 -- -- 72
2020-05-09 20:00:00 16.8 17 Oeste 36 Oeste 0 -- -- 66
2020-05-09 19:00:00 17.9 21 Oeste 29 Noroeste 0 -- -- 54
2020-05-09 18:00:00 18.1 13 Sudoeste 37 Sudoeste 0 -- -- 49
2020-05-09 17:00:00 17.9 12 Sudoeste 28 Sudoeste 0 -- -- 52
2020-05-09 16:00:00 17.6 16 Sudoeste 27 Oeste 0 -- -- 58
2020-05-09 15:00:00 18.4 17 Sudoeste 29 Sudoeste 0 -- -- 54
2020-05-09 14:00:00 18.3 15 Sur 31 Sudoeste 0 -- -- 56
2020-05-09 13:00:00 17.4 14 Sudoeste 26 Sudoeste 0 -- -- 58
2020-05-09 12:00:00 16.9 15 Sudoeste 28 Sudoeste 0 -- -- 64
2020-05-09 11:00:00 16.3 12 Sur 29 Sudoeste 0 -- -- 74
2020-05-09 10:00:00 14.3 4 Oeste 7 Oeste 0 -- -- 90
2020-05-09 09:00:00 10.3 4 Oeste 6 Oeste 0 -- -- 95
2020-05-09 08:00:00 8.6 3 Este 10 Oeste 0 -- -- 96
2020-05-09 07:00:00 8.5 0 Calma 7 Oeste 0 -- -- 96
2020-05-09 06:00:00 8.7 3 Este 8 Sur 0 -- -- 94
2020-05-09 05:00:00 9.6 3 Oeste 19 Sudeste 0 -- -- 91
2020-05-09 04:00:00 11.3 13 Sudeste 24 Este 0 -- -- 87
2020-05-09 03:00:00 10.6 7 Sur 18 Nordeste 0 -- -- 93
2020-05-09 02:00:00 10.6 8 Norte 23 Sudeste 1.4 -- -- 93
2020-05-09 01:00:00 10.7 12 Sudeste 18 Este 0 -- -- 91
2020-05-09 00:00:00 11.1 13 Sudeste 20 Sudeste 0 -- -- 91
2020-05-08 23:00:00 11.6 5 Sudeste 11 Sudeste 0 -- -- 89
2020-05-08 22:00:00 13.3 12 Este 21 Este 0.4 -- -- 76
2020-05-08 21:00:00 15.5 7 Este 19 Sudeste 0 -- -- 63
2020-05-08 20:00:00 15.9 14 Sudeste 38 Sudeste 0.2 -- -- 61
2020-05-08 19:00:00 17 10 Sudeste 19 Sur 0 -- -- 69
2020-05-08 18:00:00 18.5 3 Sudeste 18 Sudoeste 0 -- -- 71
2020-05-08 17:00:00 21.4 8 Noroeste 25 Sudoeste 0 -- -- 55
2020-05-08 16:00:00 21 12 Oeste 21 Oeste 0 -- -- 57
2020-05-08 15:00:00 19.2 8 Sudeste 24 Este 0 -- -- 59
2020-05-08 14:00:00 18.6 11 Sudeste 28 Sudeste 0 -- -- 64
2020-05-08 13:00:00 16.3 19 Sudeste 29 Sudeste 0 -- -- 73
2020-05-08 12:00:00 14.2 2 Sudoeste 23 Noroeste 0 -- -- 81
2020-05-08 11:00:00 12.1 11 Noroeste 42 Oeste 0.6 -- -- 92
2020-05-08 10:00:00 12.1 10 Este 31 Sudeste 0.6 -- -- 83
2020-05-08 09:00:00 11.6 10 Este 23 Oeste 1.4 -- -- 87
2020-05-08 08:00:00 13 4 Sudeste 18 Sudoeste 0 -- -- 77
2020-05-08 07:00:00 14.2 10 Sudoeste 50 Sudoeste 0 -- -- 64
2020-05-08 06:00:00 13.7 17 Sudeste 28 Sudeste 0 -- -- 67
2020-05-08 05:00:00 12.4 8 Sudeste 17 Este 0 -- -- 73
2020-05-08 04:00:00 14.6 14 Este 22 Este 0 -- -- 64
2020-05-08 03:00:00 16.2 17 Este 41 Sudeste 0 -- -- 58
2020-05-08 02:00:00 16.9 21 Sudeste 35 Sudeste 0 -- -- 60
2020-05-08 01:00:00 17.3 14 Sudeste 23 Sudeste 0 -- -- 63
2020-05-08 00:00:00 16.7 11 Este 27 Este 0 -- -- 65
2020-05-07 23:00:00 17.7 20 Sudeste 37 Sudeste 0 -- -- 64
2020-05-07 22:00:00 18.5 8 Sudeste 30 Sudeste 0 -- -- 63
2020-05-07 21:00:00 20 9 Sur 23 Sudoeste 0 -- -- 56
2020-05-07 20:00:00 21.4 8 Sudoeste 32 Sur 0 -- -- 48
2020-05-07 19:00:00 21.3 8 Sur 29 Sudeste 0 -- -- 52
2020-05-07 18:00:00 21.2 14 Sudeste 34 Sudeste 0 -- -- 52
2020-05-07 17:00:00 22.4 17 Sur 31 Sudoeste 0 -- -- 48
2020-05-07 16:00:00 22.3 12 Oeste 31 Sudoeste 0 -- -- 43
2020-05-07 15:00:00 22.1 9 Sur 30 Sur 0 -- -- 47
2020-05-07 14:00:00 21.1 18 Sudoeste 33 Sudoeste 0 -- -- 50
2020-05-07 13:00:00 21.3 14 Sudoeste 28 Sudoeste 0 -- -- 52
2020-05-07 12:00:00 19.3 14 Sudeste 31 Sudeste 0 -- -- 58
2020-05-07 11:00:00 19 16 Sudeste 34 Sudeste 0 -- -- 61
2020-05-07 10:00:00 16.1 15 Sudeste 26 Este 0 -- -- 64
2020-05-07 09:00:00 12.5 6 Noroeste 17 Este 0 -- -- 78
2020-05-07 08:00:00 11.5 13 Este 19 Este 0 -- -- 78
2020-05-07 07:00:00 8.3 12 Sudeste 19 Sudeste 0 -- -- 91
2020-05-07 06:00:00 9 8 Este 15 Este 0 -- -- 89
2020-05-07 05:00:00 9.3 3 Sudeste 19 Sudeste 0 -- -- 87
2020-05-07 04:00:00 10.1 7 Este 24 Sudeste 0 -- -- 85
2020-05-07 03:00:00 11.2 15 Sudeste 24 Este 0 -- -- 82
2020-05-07 02:00:00 10.8 17 Sudeste 23 Sudeste 0 -- -- 81
2020-05-07 01:00:00 11 10 Sudeste 15 Sudeste 0 -- -- 77
2020-05-07 00:00:00 12.7 2 Sudeste 19 Este 0 -- -- 66
2020-05-06 23:00:00 13.5 7 Este 28 Nordeste 0 -- -- 64
2020-05-06 22:00:00 15.9 18 Nordeste 29 Nordeste 0 -- -- 57
2020-05-06 21:00:00 17.2 4 Nordeste 22 Este 0 -- -- 53
2020-05-06 20:00:00 19.4 14 Este 22 Este 0 -- -- 46
2020-05-06 19:00:00 20.9 12 Noroeste 22 Oeste 0 -- -- 43
2020-05-06 18:00:00 21.3 9 Noroeste 26 Oeste 0 -- -- 38
2020-05-06 17:00:00 20.8 12 Noroeste 37 Noroeste 0 -- -- 40
2020-05-06 16:00:00 20.1 12 Noroeste 25 Oeste 0 -- -- 40
2020-05-06 15:00:00 19.7 8 Oeste 26 Oeste 0 -- -- 43
2020-05-06 14:00:00 18.9 11 Noroeste 27 Oeste 0 -- -- 46
2020-05-06 13:00:00 18.5 9 Este 17 Oeste 0 -- -- 44
2020-05-06 12:00:00 17.7 9 Sudeste 15 Este 0 -- -- 43
2020-05-06 11:00:00 15.8 6 Sudeste 10 Sudeste 0 -- -- 46
2020-05-06 10:00:00 13.8 5 Sudeste 9 Sudeste 0 -- -- 60
2020-05-06 09:00:00 7.8 0 Calma 4 Oeste 0 -- -- 82
2020-05-06 08:00:00 5.4 0 Calma 2 Este 0 -- -- 87
2020-05-06 07:00:00 3.6 -- -- -- -- 0 -- -- 88
2020-05-06 06:00:00 4.2 0 Calma 4 Este 0 -- -- 84
2020-05-06 05:00:00 4.5 0 Calma 3 Este 0 -- -- 83
2020-05-06 04:00:00 5.4 0 Calma 2 Sudeste 0 -- -- 79
2020-05-06 03:00:00 6.2 0 Calma 4 Noroeste 0 -- -- 77
2020-05-06 02:00:00 7.1 3 Noroeste 5 Noroeste 0 -- -- 76
2020-05-06 01:00:00 8.8 0 Calma 4 Este 0 -- -- 65
2020-05-06 00:00:00 9.1 3 Sudeste 8 Norte 0 -- -- 66
2020-05-05 23:00:00 11.5 5 Noroeste 9 Norte 0 -- -- 57
2020-05-05 22:00:00 12.3 5 Noroeste 12 Norte 0 -- -- 51
2020-05-05 21:00:00 14.5 9 Noroeste 17 Oeste 0 -- -- 44
2020-05-05 20:00:00 16.9 13 Noroeste 20 Noroeste 0 -- -- 39
2020-05-05 19:00:00 17.5 7 Oeste 28 Oeste 0 -- -- 37
2020-05-05 18:00:00 17.9 10 Oeste 28 Oeste 0 -- -- 35
2020-05-05 17:00:00 18.6 9 Noroeste 39 Oeste 0 -- -- 35
2020-05-05 16:00:00 18 13 Oeste 30 Sudoeste 0 -- -- 32
2020-05-05 15:00:00 17 10 Noroeste 28 Oeste 0 -- -- 43
2020-05-05 14:00:00 16.7 9 Sudoeste 30 Oeste 0 -- -- 40
2020-05-05 13:00:00 15.4 18 Oeste 30 Oeste 0 -- -- 40
2020-05-05 12:00:00 14.5 13 Noroeste 20 Noroeste 0 -- -- 54
2020-05-05 11:00:00 13.4 12 Noroeste 20 Noroeste 0 -- -- 57
2020-05-05 10:00:00 12.2 7 Oeste 17 Oeste 0 -- -- 67
2020-05-05 09:00:00 11.6 6 Noroeste 14 Noroeste 0 -- -- 79
2020-05-05 08:00:00 9.9 7 Norte 12 Norte 0 -- -- 87
2020-05-05 07:00:00 9.4 5 Norte 10 Norte 0 -- -- 87
2020-05-05 06:00:00 9.6 7 Norte 10 Norte 0 -- -- 83
2020-05-05 05:00:00 10 6 Noroeste 14 Noroeste 0 -- -- 79
2020-05-05 04:00:00 10.6 6 Norte 12 Norte 0 -- -- 77
2020-05-05 03:00:00 11.2 4 Norte 7 Norte 0 -- -- 73
2020-05-05 02:00:00 11.7 5 Noroeste 14 Oeste 0 -- -- 71
2020-05-05 01:00:00 12.6 9 Noroeste 19 Oeste 0 -- -- 67
2020-05-05 00:00:00 13.6 13 Noroeste 25 Noroeste 0 -- -- 66
2020-05-04 23:00:00 14.9 19 Oeste 33 Oeste 0 -- -- 66
2020-05-04 22:00:00 16.2 19 Oeste 74 Oeste 0 -- -- 62
2020-05-04 21:00:00 21.5 25 Oeste 48 Oeste 0 -- -- 49
2020-05-04 20:00:00 22.8 29 Oeste 51 Oeste 0 -- -- 44
2020-05-04 19:00:00 23.9 29 Oeste 67 Oeste 0 -- -- 37
2020-05-04 18:00:00 24.5 20 Sur 54 Sur 0 -- -- 35
2020-05-04 17:00:00 24.2 26 Sur 48 Sur 0 -- -- 34
2020-05-04 16:00:00 24.8 23 Sur 43 Sur 0 -- -- 34
2020-05-04 15:00:00 24 11 Sur 35 Sur 0 -- -- 40
2020-05-04 14:00:00 23.7 20 Sudoeste 37 Sur 0 -- -- 37
2020-05-04 13:00:00 23.4 20 Sur 43 Sur 0 -- -- 34
2020-05-04 12:00:00 24.5 19 Sudoeste 34 Sudoeste 0 -- -- 33
2020-05-04 11:00:00 22.7 13 Sudeste 23 Sudeste 0 -- -- 44
2020-05-04 10:00:00 18.3 12 Sudeste 19 Este 0 -- -- 62
2020-05-04 09:00:00 12.2 3 Este 11 Este 0 -- -- 86
2020-05-04 08:00:00 9.4 0 Calma 3 Oeste 0 -- -- 85
2020-05-04 07:00:00 9 3 Noroeste 6 Noroeste 0 -- -- 86
2020-05-04 06:00:00 8.7 0 Calma 3 Este 0 -- -- 85
2020-05-04 05:00:00 9.1 0 Calma 3 Este 0 -- -- 82
2020-05-04 04:00:00 9.3 0 Calma 2 Sudeste 0 -- -- 80
2020-05-04 03:00:00 9.9 0 Calma 4 Noroeste 0 -- -- 78
2020-05-04 02:00:00 10.2 0 Calma 4 Oeste 0 -- -- 76
2020-05-04 01:00:00 10.6 0 Calma 5 Sudoeste 0 -- -- 75
2020-05-04 00:00:00 11.8 0 Calma 8 Oeste 0 -- -- 69
2020-05-03 23:00:00 13.8 3 Noroeste 8 Norte 0 -- -- 59
2020-05-03 22:00:00 15.8 0 Calma 6 Este 0 -- -- 51
2020-05-03 21:00:00 19.2 5 Norte 9 Oeste 0 -- -- 43
2020-05-03 20:00:00 22 10 Oeste 27 Noroeste 0 -- -- 34
2020-05-03 19:00:00 23 15 Oeste 25 Noroeste 0 -- -- 31
2020-05-03 18:00:00 23.1 20 Noroeste 32 Noroeste 0 -- -- 29
2020-05-03 17:00:00 23 17 Noroeste 31 Noroeste 0 -- -- 36
2020-05-03 16:00:00 22.6 14 Noroeste 32 Oeste 0 -- -- 36
2020-05-03 15:00:00 21.6 17 Oeste 31 Oeste 0 -- -- 39
2020-05-03 14:00:00 20.9 17 Noroeste 31 Noroeste 0 -- -- 48
2020-05-03 13:00:00 19.8 14 Noroeste 28 Noroeste 0 -- -- 50
2020-05-03 12:00:00 18.4 14 Oeste 25 Noroeste 0 -- -- 52
2020-05-03 11:00:00 16.5 5 Noroeste 12 Oeste 0 -- -- 64
2020-05-03 10:00:00 13.8 0 Calma 4 Sur 0 -- -- 85
2020-05-03 09:00:00 9.1 0 Calma 2 Este 0 -- -- 99
2020-05-03 08:00:00 5.6 0 Calma 3 Sudeste 0 -- -- 100
2020-05-03 07:00:00 4.9 0 Calma 3 Oeste 0 -- -- 99
2020-05-03 06:00:00 4.8 0 Calma 3 Oeste 0 -- -- 99
2020-05-03 05:00:00 5.7 2 Oeste 3 Oeste 0 -- -- 98
2020-05-03 04:00:00 6.4 0 Calma 2 Oeste 0 -- -- 98
2020-05-03 03:00:00 7.3 0 Calma 2 Oeste 0 -- -- 96
2020-05-03 02:00:00 7.6 0 Calma 4 Este 0 -- -- 96
2020-05-03 01:00:00 8.1 2 Este 7 Sudoeste 0 -- -- 94
2020-05-03 00:00:00 9.1 3 Sudeste 4 Sudoeste 0 -- -- 89
2020-05-02 23:00:00 10.7 3 Sudeste 6 Norte 0 -- -- 86
2020-05-02 22:00:00 12.5 4 Noroeste 12 Noroeste 0 -- -- 79
2020-05-02 21:00:00 14.2 8 Noroeste 23 Noroeste 0 -- -- 73
2020-05-02 20:00:00 16.2 14 Noroeste 27 Oeste 0 -- -- 65
2020-05-02 19:00:00 17.2 17 Noroeste 34 Oeste 0 -- -- 60
2020-05-02 18:00:00 17.8 17 Oeste 36 Oeste 0 -- -- 64
2020-05-02 17:00:00 17.8 23 Oeste 39 Oeste 0 -- -- 64
2020-05-02 16:00:00 17.2 23 Oeste 36 Oeste 0 -- -- 65
2020-05-02 15:00:00 16.4 18 Oeste 36 Oeste 0 -- -- 69
2020-05-02 14:00:00 15.6 19 Oeste 29 Noroeste 0 -- -- 73
2020-05-02 13:00:00 14 17 Oeste 31 Noroeste 0 -- -- 77
2020-05-02 12:00:00 12.6 18 Noroeste 30 Oeste 0 -- -- 84
2020-05-02 11:00:00 11.1 13 Noroeste 21 Norte 0 -- -- 92
2020-05-02 10:00:00 10.2 11 Noroeste 22 Noroeste 0 -- -- 96
2020-05-02 09:00:00 9.7 15 Oeste 22 Noroeste 0 -- -- 98
2020-05-02 08:00:00 9.7 14 Oeste 24 Noroeste 0 -- -- 98
2020-05-02 07:00:00 9.9 17 Noroeste 26 Oeste 0 -- -- 97
2020-05-02 06:00:00 10.1 13 Oeste 25 Oeste 0 -- -- 97
2020-05-02 05:00:00 10.3 14 Noroeste 32 Noroeste 0 -- -- 97
2020-05-02 04:00:00 10.6 20 Noroeste 36 Oeste 0 -- -- 95
2020-05-02 03:00:00 11.2 25 Noroeste 38 Noroeste 0 -- -- 93
2020-05-02 02:00:00 11.5 26 Noroeste 40 Noroeste 0 -- -- 91
2020-05-02 01:00:00 12.1 31 Noroeste 43 Oeste 0 -- -- 90
2020-05-02 00:00:00 12.9 30 Noroeste 41 Noroeste 0 -- -- 87
2020-05-01 23:00:00 13.2 19 Oeste 31 Oeste 0 -- -- 88
2020-05-01 22:00:00 13.7 22 Oeste 39 Oeste 0 -- -- 85
2020-05-01 21:00:00 14.4 27 Oeste 45 Oeste 0 -- -- 81
2020-05-01 20:00:00 14.6 23 Oeste 48 Noroeste 0 -- -- 81
2020-05-01 19:00:00 14.8 23 Oeste 49 Oeste 0 -- -- 80
2020-05-01 18:00:00 14.7 34 Oeste 50 Oeste 0 -- -- 80
2020-05-01 17:00:00 15.2 32 Noroeste 51 Oeste 0 -- -- 77
2020-05-01 16:00:00 14.9 34 Noroeste 49 Noroeste 0 -- -- 79
2020-05-01 15:00:00 14.2 30 Oeste 48 Noroeste 0 -- -- 82
2020-05-01 14:00:00 13 26 Oeste 47 Oeste 0 -- -- 90
2020-05-01 13:00:00 11.9 27 Oeste 42 Noroeste 0 -- -- 99
2020-05-01 12:00:00 10.2 28 Noroeste 44 Oeste 0.2 -- -- 100
2020-05-01 11:00:00 9.7 23 Noroeste 44 Noroeste 0.6 -- -- 100
2020-05-01 10:00:00 9.3 22 Noroeste 36 Oeste 1 -- -- 100
2020-05-01 09:00:00 8.9 24 Noroeste 46 Oeste 1.2 -- -- 100
2020-05-01 08:00:00 8.6 29 Oeste 51 Oeste 1.4 -- -- 100
2020-05-01 07:00:00 8.5 26 Oeste 44 Oeste 2 -- -- 100
2020-05-01 06:00:00 8.6 29 Oeste 45 Oeste 1 -- -- 100
2020-05-01 05:00:00 8.5 24 Noroeste 44 Oeste 0.4 -- -- 98
2020-05-01 04:00:00 8.5 27 Noroeste 44 Noroeste 0.4 -- -- 98
2020-05-01 03:00:00 8.4 27 Noroeste 44 Oeste 0.2 -- -- 96
2020-05-01 02:00:00 8.7 28 Noroeste 45 Oeste 0 -- -- 93
2020-05-01 01:00:00 8.7 31 Oeste 45 Noroeste 0 -- -- 92
2020-05-01 00:00:00 8.9 27 Oeste 46 Oeste 0 -- -- 91
2020-04-30 23:00:00 9.1 30 Oeste 56 Oeste 0 -- -- 88
2020-04-30 22:00:00 9.4 28 Oeste 53 Oeste 0 -- -- 87
2020-04-30 21:00:00 9.9 29 Oeste 48 Oeste 0 -- -- 85
2020-04-30 20:00:00 10.2 26 Oeste 41 Oeste 0 -- -- 81
2020-04-30 19:00:00 10.5 31 Oeste 52 Oeste 0 -- -- 78
2020-04-30 18:00:00 10.5 33 Oeste 50 Oeste 0 -- -- 77
2020-04-30 17:00:00 10.1 25 Oeste 43 Oeste 0.2 -- -- 83
2020-04-30 16:00:00 9.1 27 Noroeste 56 Oeste 0.4 -- -- 89
2020-04-30 15:00:00 9.8 29 Oeste 53 Noroeste 0 -- -- 75
2020-04-30 14:00:00 9.2 31 Oeste 50 Oeste 0.2 -- -- 78
2020-04-30 13:00:00 7.4 28 Oeste 46 Noroeste 0 -- -- 90
2020-04-30 12:00:00 7.2 27 Oeste 50 Oeste 0 -- -- 87
2020-04-30 11:00:00 6.4 25 Noroeste 52 Oeste 0 -- -- 92
2020-04-30 10:00:00 6.3 28 Oeste 61 Noroeste 0 -- -- 90
2020-04-30 09:00:00 6.3 29 Oeste 55 Oeste 0 -- -- 91
2020-04-30 08:00:00 6 28 Oeste 49 Oeste 0 -- -- 91
2020-04-30 07:00:00 5.7 25 Noroeste 49 Noroeste 0 -- -- 91
2020-04-30 06:00:00 5.8 26 Noroeste 42 Oeste 0 -- -- 88
2020-04-30 05:00:00 5.8 23 Noroeste 40 Noroeste 0 -- -- 89
2020-04-30 04:00:00 6.2 27 Noroeste 39 Noroeste 0 -- -- 85
2020-04-30 03:00:00 6.4 21 Oeste 45 Oeste 0 -- -- 86
2020-04-30 02:00:00 7.6 26 Oeste 45 Oeste 0 -- -- 87
2020-04-30 01:00:00 8.5 32 Oeste 45 Oeste 0 -- -- 88
2020-04-30 00:00:00 9 27 Noroeste 47 Oeste 0 -- -- 86
2020-04-29 23:00:00 9.2 26 Oeste 42 Oeste 0 -- -- 84
2020-04-29 22:00:00 9.3 27 Noroeste 48 Noroeste 0 -- -- 84
2020-04-29 21:00:00 9.7 24 Oeste 53 Noroeste 0 -- -- 80
2020-04-29 20:00:00 10.3 30 Oeste 61 Oeste 0 -- -- 75
2020-04-29 19:00:00 10.8 35 Oeste 55 Oeste 0 -- -- 77
2020-04-29 18:00:00 9.9 23 Oeste 57 Noroeste 0.4 -- -- 89
2020-04-29 17:00:00 10.8 24 Noroeste 43 Noroeste 0.2 -- -- 77
2020-04-29 16:00:00 11.6 28 Oeste 44 Oeste 0 -- -- 68
2020-04-29 15:00:00 11.9 23 Oeste 40 Oeste 0 -- -- 70
2020-04-29 14:00:00 9.4 19 Oeste 39 Oeste 0 -- -- 75
2020-04-29 13:00:00 9.6 24 Oeste 45 Oeste 0 -- -- 74
2020-04-29 12:00:00 8.8 25 Noroeste 41 Noroeste 0 -- -- 76
2020-04-29 11:00:00 7.8 24 Oeste 37 Oeste 0 -- -- 79
2020-04-29 10:00:00 6.9 21 Oeste 33 Oeste 0 -- -- 85
2020-04-29 09:00:00 5.3 11 Noroeste 23 Noroeste 0 -- -- 97
2020-04-29 08:00:00 5 17 Noroeste 26 Noroeste 0 -- -- 96
2020-04-29 07:00:00 4.8 10 Noroeste 18 Norte 0 -- -- 96
2020-04-29 06:00:00 4.5 9 Noroeste 21 Oeste 0 -- -- 95
2020-04-29 05:00:00 4.3 14 Oeste 23 Oeste 0 -- -- 93
2020-04-29 04:00:00 4.3 10 Noroeste 16 Oeste 0 -- -- 92
2020-04-29 03:00:00 4.2 13 Oeste 16 Oeste 0 -- -- 93
2020-04-29 02:00:00 4.5 6 Noroeste 17 Oeste 0 -- -- 89
2020-04-29 01:00:00 5.4 8 Noroeste 13 Noroeste 0 -- -- 89
2020-04-29 00:00:00 6.9 10 Noroeste 15 Oeste 0 -- -- 85
2020-04-28 23:00:00 7 7 Noroeste 11 Noroeste 0 -- -- 84
2020-04-28 22:00:00 7.4 11 Noroeste 31 Noroeste 0 -- -- 80
2020-04-28 21:00:00 8.3 17 Noroeste 32 Noroeste 0 -- -- 76
2020-04-28 20:00:00 8.5 15 Oeste 36 Noroeste 0 -- -- 77
2020-04-28 19:00:00 9 23 Noroeste 38 Oeste 0 -- -- 70
2020-04-28 18:00:00 9.3 26 Oeste 38 Oeste 0 -- -- 71
2020-04-28 17:00:00 9 24 Noroeste 42 Noroeste 0 -- -- 74
2020-04-28 16:00:00 8.2 27 Noroeste 40 Noroeste 0 -- -- 78
2020-04-28 15:00:00 7.4 21 Oeste 41 Oeste 0.4 -- -- 85
2020-04-28 14:00:00 6.8 17 Noroeste 42 Noroeste 1 -- -- 91
2020-04-28 13:00:00 6.8 20 Oeste 36 Oeste 0.2 -- -- 86
2020-04-28 12:00:00 6.4 24 Oeste 38 Oeste 0.2 -- -- 87
2020-04-28 11:00:00 5.7 22 Oeste 36 Oeste 0 -- -- 92
2020-04-28 10:00:00 5.4 19 Oeste 32 Oeste 0 -- -- 96
2020-04-28 09:00:00 4.8 19 Oeste 34 Oeste 0 -- -- 98
2020-04-28 08:00:00 4.7 20 Noroeste 30 Noroeste 0 -- -- 99
2020-04-28 07:00:00 4.7 18 Oeste 28 Oeste 0 -- -- 99
2020-04-28 06:00:00 4.8 19 Oeste 29 Oeste 0 -- -- 99
2020-04-28 05:00:00 5 22 Oeste 30 Oeste 0 -- -- 98
2020-04-28 04:00:00 5.5 15 Noroeste 25 Noroeste 0 -- -- 98
2020-04-28 03:00:00 5.6 6 Noroeste 9 Noroeste 0 -- -- 97
2020-04-28 02:00:00 5.4 2 Norte 5 Norte 0 -- -- 97
2020-04-28 01:00:00 5.4 3 Noroeste 14 Noroeste 0.2 -- -- 97
2020-04-28 00:00:00 5.7 13 Noroeste 21 Noroeste 0 -- -- 95
2020-04-27 23:00:00 5.8 4 Noroeste 18 Noroeste 0 -- -- 95
2020-04-27 22:00:00 6.2 6 Norte 18 Norte 1.8 -- -- 91
2020-04-27 21:00:00 7.4 2 Sudeste 5 Norte 0 -- -- 93
2020-04-27 20:00:00 7.4 6 Norte 37 Oeste 2.2 -- -- 90
2020-04-27 19:00:00 9.3 12 Sudoeste 35 Oeste 0 -- -- 81
2020-04-27 18:00:00 11.1 24 Oeste 37 Oeste 0 -- -- 71
2020-04-27 17:00:00 10.1 24 Noroeste 37 Oeste 0 -- -- 77
2020-04-27 16:00:00 7.2 17 Noroeste 43 Oeste 0.2 -- -- 91
2020-04-27 15:00:00 8.3 21 Oeste 36 Noroeste 0.2 -- -- 84
2020-04-27 14:00:00 7 6 Oeste 26 Oeste 0.8 -- -- 96
2020-04-27 13:00:00 6.9 19 Noroeste 26 Noroeste 0.2 -- -- 96
2020-04-27 12:00:00 7.2 12 Oeste 21 Oeste 0 -- -- 97
2020-04-27 11:00:00 7 14 Oeste 23 Oeste 0 -- -- 98
2020-04-27 10:00:00 6.9 14 Oeste 22 Oeste 0.6 -- -- 99
2020-04-27 09:00:00 7 11 Oeste 18 Oeste 0 -- -- 100
2020-04-27 08:00:00 7.1 10 Oeste 19 Noroeste 0 -- -- 99
2020-04-27 07:00:00 7.3 13 Noroeste 21 Noroeste 0 -- -- 99
2020-04-27 06:00:00 7.7 12 Oeste 19 Oeste 0 -- -- 99
2020-04-27 05:00:00 7.9 0 Calma 6 Norte 0 -- -- 99
2020-04-27 04:00:00 8 4 Norte 6 Noroeste 0.2 -- -- 100
2020-04-27 03:00:00 8.1 2 Noroeste 10 Oeste 0.2 -- -- 100
2020-04-27 02:00:00 8.2 6 Noroeste 19 Noroeste 0.8 -- -- 100
2020-04-27 01:00:00 8.1 2 Noroeste 4 Sur 1 -- -- 100
2020-04-27 00:00:00 8.1 0 Calma 4 Norte 0 -- -- 99
2020-04-26 23:00:00 8 0 Calma 4 Norte 0 -- -- 98
2020-04-26 22:00:00 7.8 3 Nordeste 5 Sudoeste 0.2 -- -- 98
2020-04-26 21:00:00 8.1 2 Nordeste 18 Oeste 6 -- -- 97
2020-04-26 20:00:00 8.9 7 Oeste 33 Noroeste 7.8 -- -- 91
2020-04-26 19:00:00 11.6 4 Sudeste 17 Nordeste 0 -- -- 90
2020-04-26 18:00:00 11 4 Norte 7 Norte 0.8 -- -- 89
2020-04-26 17:00:00 11 4 Sudeste 21 Noroeste 1.8 -- -- 93
2020-04-26 16:00:00 12.2 18 Noroeste 26 Oeste 0.6 -- -- 86
2020-04-26 15:00:00 14 8 Oeste 16 Oeste 0 -- -- 73
2020-04-26 14:00:00 12.3 14 Oeste 21 Oeste 0 -- -- 84
2020-04-26 13:00:00 12.2 7 Noroeste 16 Noroeste 0 -- -- 83
2020-04-26 12:00:00 10.8 0 Calma 10 Sudeste 0 -- -- 89
2020-04-26 11:00:00 9.9 10 Sudeste 15 Este 0 -- -- 95
2020-04-26 10:00:00 -- 0 Calma -- -- 0 -- -- --
2020-04-26 09:00:00 8 5 Sudeste 6 Sudeste 0 -- -- 100
2020-04-26 08:00:00 7.7 0 Calma 5 Oeste 0 -- -- 100
2020-04-26 07:00:00 7.7 3 Oeste 6 Este 0 -- -- 100
2020-04-26 06:00:00 7.8 3 Este 6 Este 0 -- -- 100
2020-04-26 05:00:00 7.8 3 Este 13 Sudeste 0 -- -- 100
2020-04-26 04:00:00 8.3 9 Sudeste 19 Sudeste 0 -- -- 100
2020-04-26 03:00:00 8.1 13 Sudeste 24 Sudeste 0 -- -- 99
2020-04-26 02:00:00 7.7 10 Sudeste 15 Sudeste 0 -- -- 98
2020-04-26 01:00:00 8.9 12 Sudeste 22 Sudeste 0 -- -- 95
2020-04-26 00:00:00 9.4 11 Este 21 Sudeste 0 -- -- 95